createdAt,value
2018-12-17T00:00:40.375Z,1.20
2018-12-17T00:05:41.584Z,1.20
2018-12-17T00:10:39.661Z,1.20
2018-12-17T00:15:35.859Z,1.20
2018-12-17T00:20:30.875Z,1.20
2018-12-17T00:25:25.645Z,1.20
2018-12-17T00:30:20.536Z,1.20
2018-12-17T00:35:16.522Z,1.10
2018-12-17T00:40:11.551Z,1.20
2018-12-17T00:45:07.705Z,1.10
2018-12-17T00:50:04.073Z,1.10
2018-12-17T00:54:58.995Z,1.10
2018-12-17T00:59:53.795Z,1.10
2018-12-17T01:04:48.804Z,1.10
2018-12-17T01:09:43.651Z,1.10
2018-12-17T01:14:38.710Z,1.20
2018-12-17T01:19:33.435Z,1.20
2018-12-17T01:24:28.223Z,1.10
2018-12-17T01:29:22.958Z,1.20
2018-12-17T01:34:17.712Z,1.20
2018-12-17T01:39:12.499Z,1.20
2018-12-17T01:44:07.297Z,1.20
2018-12-17T01:49:02.083Z,1.20
2018-12-17T01:53:56.824Z,1.10
2018-12-17T01:58:51.573Z,1.10
2018-12-17T02:03:46.345Z,1.10
2018-12-17T02:08:41.256Z,1.10
2018-12-17T02:13:36.057Z,1.10
2018-12-17T02:18:30.813Z,1.10
2018-12-17T02:23:25.547Z,1.00
2018-12-17T02:28:20.302Z,1.00
2018-12-17T02:33:15.166Z,1.00
2018-12-17T02:38:09.991Z,1.00
2018-12-17T02:43:04.903Z,1.00
2018-12-17T02:47:59.685Z,1.00
2018-12-17T02:52:54.653Z,1.00
2018-12-17T02:57:49.419Z,1.00
2018-12-17T03:02:44.167Z,1.00
2018-12-17T03:07:38.908Z,0.90
2018-12-17T03:12:33.637Z,0.90
2018-12-17T03:17:28.369Z,0.90
2018-12-17T03:22:23.133Z,1.00
2018-12-17T03:27:17.849Z,1.00
2018-12-17T03:32:12.593Z,1.00
2018-12-17T03:37:07.455Z,1.10
2018-12-17T03:42:02.183Z,1.00
2018-12-17T03:46:56.944Z,1.00
2018-12-17T03:51:51.696Z,1.00
2018-12-17T03:56:46.582Z,1.00
2018-12-17T04:01:41.422Z,0.90
2018-12-17T04:06:36.208Z,0.90
2018-12-17T04:11:30.958Z,0.90
2018-12-17T04:16:25.781Z,0.80
2018-12-17T04:21:20.848Z,0.90
2018-12-17T04:26:15.652Z,0.90
2018-12-17T04:31:10.545Z,0.90
2018-12-17T04:36:05.306Z,0.90
2018-12-17T04:41:00.117Z,0.90
2018-12-17T04:45:54.906Z,0.90
2018-12-17T04:50:50.667Z,0.90
2018-12-17T04:55:45.442Z,0.90
2018-12-17T05:00:40.205Z,0.90
2018-12-17T05:05:34.889Z,0.90
2018-12-17T05:10:29.632Z,0.90
2018-12-17T05:15:24.458Z,0.80
2018-12-17T05:20:19.172Z,0.80
2018-12-17T05:25:14.093Z,0.80
2018-12-17T05:30:09.922Z,0.80
2018-12-17T05:35:06.699Z,0.80
2018-12-17T05:40:01.528Z,0.80
2018-12-17T05:44:56.352Z,0.80
2018-12-17T05:49:51.149Z,0.80
2018-12-17T05:54:46.966Z,0.80
2018-12-17T05:59:41.848Z,0.80
2018-12-17T06:04:36.654Z,0.80
2018-12-17T06:09:31.974Z,0.80
2018-12-17T06:14:30.080Z,0.80
2018-12-17T06:19:24.925Z,0.80
2018-12-17T06:24:19.922Z,0.80
2018-12-17T06:29:14.877Z,0.70
2018-12-17T06:34:09.840Z,0.70
2018-12-17T06:39:07.972Z,0.70
2018-12-17T06:44:02.826Z,0.70
2018-12-17T06:48:57.591Z,0.70
2018-12-17T06:53:52.652Z,0.70
2018-12-17T06:58:47.712Z,0.70
2018-12-17T07:03:42.684Z,0.70
2018-12-17T07:08:37.623Z,0.70
2018-12-17T07:13:33.705Z,0.70
2018-12-17T07:18:28.562Z,0.70
2018-12-17T07:23:24.248Z,0.70
2018-12-17T07:28:19.090Z,0.80
2018-12-17T07:33:14.024Z,0.80
2018-12-17T07:38:08.838Z,0.80
2018-12-17T07:43:03.977Z,0.80
2018-12-17T07:48:00.287Z,0.80
2018-12-17T07:52:55.936Z,0.90
2018-12-17T07:57:50.849Z,0.90
2018-12-17T08:02:46.815Z,1.00
2018-12-17T08:07:41.737Z,1.00
2018-12-17T08:12:38.233Z,1.00
2018-12-17T08:17:33.122Z,1.10
2018-12-17T08:22:28.210Z,1.10
2018-12-17T08:27:23.128Z,1.10
2018-12-17T08:32:19.274Z,1.20
2018-12-17T08:37:14.316Z,1.20
2018-12-17T08:42:10.649Z,1.20
2018-12-17T08:47:05.634Z,1.30
2018-12-17T08:52:00.649Z,1.30
2018-12-17T08:56:55.476Z,1.30
2018-12-17T09:01:50.413Z,1.30
2018-12-17T09:06:46.120Z,1.30
2018-12-17T09:11:44.250Z,1.30
2018-12-17T09:16:39.134Z,1.40
2018-12-17T09:21:35.034Z,1.50
2018-12-17T09:26:30.082Z,1.50
2018-12-17T09:31:28.330Z,1.50
2018-12-17T09:36:23.978Z,1.60
2018-12-17T09:41:21.546Z,1.60
2018-12-17T09:46:16.865Z,1.80
2018-12-17T09:51:19.351Z,1.80
2018-12-17T09:56:11.311Z,1.80
2018-12-17T10:01:11.119Z,1.80
2018-12-17T10:06:08.224Z,1.90
2018-12-17T10:11:05.106Z,1.90
2018-12-17T10:16:03.112Z,2.00
2018-12-17T10:21:01.704Z,2.00
2018-12-17T10:26:15.042Z,1.90
2018-12-17T10:36:40.603Z,1.80
2018-12-17T10:41:35.854Z,1.70
2018-12-17T10:46:30.718Z,1.80
2018-12-17T10:51:25.618Z,1.80
2018-12-17T10:56:20.381Z,1.90
2018-12-17T11:01:20.169Z,1.90
2018-12-17T11:06:17.374Z,2.00
2018-12-17T11:11:12.212Z,2.20
2018-12-17T11:16:08.258Z,2.40
2018-12-17T11:21:03.054Z,2.70
2018-12-17T11:25:57.800Z,2.90
2018-12-17T11:30:52.583Z,3.10
2018-12-17T11:35:47.415Z,3.10
2018-12-17T11:40:42.287Z,3.10
2018-12-17T11:45:37.504Z,3.20
2018-12-17T11:50:32.421Z,3.40
2018-12-17T11:55:33.459Z,3.50
2018-12-17T12:00:31.185Z,3.80
2018-12-17T12:05:32.693Z,3.90
2018-12-17T12:10:30.166Z,3.90
2018-12-17T12:15:25.228Z,4.00
2018-12-17T12:20:28.501Z,3.90
2018-12-17T12:25:27.770Z,3.70
2018-12-17T12:30:33.042Z,3.60
2018-12-17T12:35:35.380Z,3.60
2018-12-17T12:40:39.575Z,3.70
2018-12-17T12:45:44.737Z,3.60
2018-12-17T12:50:48.441Z,3.50
2018-12-17T12:55:54.898Z,3.60
2018-12-17T13:01:07.813Z,3.50
2018-12-17T13:11:24.340Z,3.70
2018-12-17T13:16:28.084Z,3.70
2018-12-17T13:21:36.529Z,3.70
2018-12-17T13:27:06.485Z,3.80
2018-12-17T13:32:36.298Z,3.60
2018-12-17T13:38:07.199Z,3.70
2018-12-17T13:43:11.100Z,3.70
2018-12-17T13:48:23.518Z,3.80
2018-12-17T13:53:43.764Z,3.80
2018-12-17T14:04:12.480Z,3.70
2018-12-17T14:09:08.907Z,3.70
2018-12-17T14:14:03.695Z,3.70
2018-12-17T14:19:03.559Z,3.80
2018-12-17T14:23:58.565Z,3.80
2018-12-17T14:28:53.570Z,3.70
2018-12-17T14:33:48.656Z,3.70
2018-12-17T14:38:43.420Z,3.60
2018-12-17T14:43:38.337Z,3.50
2018-12-17T14:48:33.208Z,3.60
2018-12-17T14:53:28.066Z,3.50
2018-12-17T14:58:22.849Z,3.40
2018-12-17T15:03:17.656Z,3.40
2018-12-17T15:08:12.436Z,3.50
2018-12-17T15:13:07.264Z,3.40
2018-12-17T15:18:02.191Z,3.40
2018-12-17T15:22:57.180Z,3.40
2018-12-17T15:27:52.399Z,3.30
2018-12-17T15:32:47.479Z,3.30
2018-12-17T15:37:42.293Z,3.30
2018-12-17T15:42:40.792Z,3.20
2018-12-17T15:47:34.121Z,3.10
2018-12-17T15:52:29.001Z,3.10
2018-12-17T15:57:23.894Z,3.10
2018-12-17T16:02:18.793Z,3.10
2018-12-17T16:07:13.549Z,3.10
2018-12-17T16:12:08.436Z,3.10
2018-12-17T16:17:03.356Z,3.20
2018-12-17T16:21:58.080Z,3.20
2018-12-17T16:26:59.229Z,3.20
2018-12-17T16:31:57.341Z,3.20
2018-12-17T16:36:51.840Z,3.20
2018-12-17T16:41:47.016Z,3.10
2018-12-17T16:46:41.936Z,3.00
2018-12-17T16:51:36.696Z,2.90
2018-12-17T16:56:31.477Z,2.80
2018-12-17T17:01:26.249Z,2.80
2018-12-17T17:06:21.209Z,2.80
2018-12-17T17:11:17.422Z,2.90
2018-12-17T17:16:12.558Z,3.00
2018-12-17T17:21:07.517Z,3.00
2018-12-17T17:26:02.314Z,3.00
2018-12-17T17:30:57.080Z,3.10
2018-12-17T17:35:54.143Z,3.10
2018-12-17T17:40:48.884Z,3.10
2018-12-17T17:45:43.782Z,3.30
2018-12-17T17:50:38.545Z,3.10
2018-12-17T17:55:33.427Z,3.00
2018-12-17T18:00:28.869Z,2.90
2018-12-17T18:05:25.124Z,2.90
2018-12-17T18:10:19.889Z,3.00
2018-12-17T18:15:14.747Z,2.90
2018-12-17T18:20:09.900Z,2.90
2018-12-17T18:25:05.074Z,2.90
2018-12-17T18:29:59.829Z,2.80
2018-12-17T18:34:54.699Z,2.90
2018-12-17T18:39:50.077Z,2.90
2018-12-17T18:44:44.819Z,2.80
2018-12-17T18:49:39.648Z,2.80
2018-12-17T18:54:34.439Z,2.70
2018-12-17T18:59:35.277Z,2.60
2018-12-17T19:04:37.824Z,2.60
2018-12-17T19:09:33.515Z,2.70
2018-12-17T19:14:28.421Z,2.80
2018-12-17T19:19:23.230Z,2.80
2018-12-17T19:24:21.485Z,2.80
2018-12-17T19:29:18.440Z,2.80
2018-12-17T19:39:50.523Z,2.80
2018-12-17T19:44:56.142Z,2.80
2018-12-17T19:49:56.506Z,2.70
2018-12-17T19:55:00.933Z,2.70
2018-12-17T20:00:02.623Z,2.70
2018-12-17T20:04:58.868Z,2.60
2018-12-17T20:09:55.983Z,2.60
2018-12-17T20:14:50.938Z,2.70
2018-12-17T20:19:49.969Z,2.70
2018-12-17T20:24:44.762Z,2.70
2018-12-17T20:29:39.572Z,2.70
2018-12-17T20:34:34.900Z,2.70
2018-12-17T20:39:29.753Z,2.80
2018-12-17T20:44:24.856Z,2.80
2018-12-17T20:49:19.716Z,2.90
2018-12-17T20:54:14.587Z,2.90
2018-12-17T20:59:09.533Z,2.90
2018-12-17T21:04:05.261Z,2.80
2018-12-17T21:09:00.872Z,2.90
2018-12-17T21:13:55.716Z,2.80
2018-12-17T21:18:50.711Z,2.80
2018-12-17T21:23:45.669Z,2.80
2018-12-17T21:28:40.543Z,2.80
2018-12-17T21:33:35.448Z,2.80
2018-12-17T21:38:31.985Z,2.80
2018-12-17T21:43:26.924Z,2.80
2018-12-17T21:48:21.984Z,2.70
2018-12-17T21:53:16.852Z,2.60
2018-12-17T21:58:11.716Z,2.60
2018-12-17T22:03:06.544Z,2.50
2018-12-17T22:08:02.532Z,2.60
2018-12-17T22:12:58.083Z,2.60
2018-12-17T22:17:52.895Z,2.60
2018-12-17T22:22:48.624Z,2.70
2018-12-17T22:27:43.507Z,2.70
2018-12-17T22:32:38.545Z,2.70
2018-12-17T22:37:33.449Z,2.60
2018-12-17T22:42:29.438Z,2.50
2018-12-17T22:47:30.175Z,2.30
2018-12-17T22:52:25.055Z,2.10
2018-12-17T22:57:19.944Z,2.00
2018-12-17T23:02:19.001Z,1.90
2018-12-17T23:07:16.308Z,1.90
2018-12-17T23:12:27.790Z,1.90
2018-12-17T23:17:39.273Z,1.80
2018-12-17T23:22:34.213Z,1.80
2018-12-17T23:27:29.237Z,1.70
2018-12-17T23:32:25.889Z,1.60
2018-12-17T23:37:20.656Z,1.70
2018-12-17T23:47:44.278Z,1.60
2018-12-17T23:52:48.326Z,1.60
2018-12-17T23:58:01.779Z,1.60
